Trf Marquette — V7OG2 — position and weather

sailwx.info

Track history (hours):
 
Tides and Currents Weather Stations Pressure Air Temp Water Temp Dewpoint Dewpoint Depression Visibility Wind Speed Wind Dir Waves Ship Positions

Trf Marquette

Last reported at 2017-Dec-15 03:49 UTC. Time now 2017-Dec-18 14:57 UTC.
Position N 01°14' E 103°58'.

Length 184 m; draft 7.9 m.

Type: Tanker. MMSI: 538006547.

Date/timePositionNaut miles runAvg speedWind from/ knotsBaromVisibWave heightAir tempDewpointWater temp
2017-Dec-15 03:49N 01°14' E 103°58'13 9.8
2017-Dec-15 02:30N 01°16' E 103°45'2 1.2
2017-Dec-15 01:00N 01°17' E 103°44'0 0.0
2017-Dec-15 00:30N 01°17' E 103°44'0 0.0
2017-Dec-14 18:30N 01°17' E 103°44'0 0.0
2017-Dec-14 17:57N 01°17' E 103°44'0 0.0
2017-Dec-14 17:24N 01°17' E 103°44'0 0.0
2017-Dec-14 17:00N 01°17' E 103°44'0 0.0
2017-Dec-14 16:30N 01°17' E 103°44'0 0.0
2017-Dec-14 16:00N 01°17' E 103°44'0 0.0
2017-Dec-14 15:00N 01°17' E 103°44'0 0.0
2017-Dec-14 14:30N 01°17' E 103°44'0 0.0
2017-Dec-14 14:00N 01°17' E 103°44'0 0.0
2017-Dec-14 13:27N 01°17' E 103°44'0 0.0
2017-Dec-14 13:00N 01°17' E 103°44'0 0.0
2017-Dec-14 12:30N 01°17' E 103°44'0 0.0
2017-Dec-14 12:00N 01°17' E 103°44'0 0.0
2017-Dec-14 11:30N 01°17' E 103°44'0 0.0
2017-Dec-14 11:00N 01°17' E 103°44'0 0.0
2017-Dec-14 10:30N 01°17' E 103°44'0 0.0
2017-Dec-14 09:54N 01°17' E 103°44'0 0.0
2017-Dec-14 09:30N 01°17' E 103°44'0 0.0
2017-Dec-14 09:00N 01°17' E 103°44'0 0.0
2017-Dec-14 08:30N 01°17' E 103°44'0 0.0
2017-Dec-14 08:00N 01°17' E 103°44'0 0.0
2017-Dec-14 07:30N 01°17' E 103°44'1 1.5
2017-Dec-14 07:00N 01°17' E 103°44'3 5.8
2017-Dec-14 06:31N 01°15' E 103°46'510.1
2017-Dec-14 06:00N 01°12' E 103°41'1 0.9
2017-Dec-14 05:23N 01°12' E 103°42'0 0.0
2017-Dec-14 04:59N 01°12' E 103°42'0 0.0
2017-Dec-14 04:29N 01°12' E 103°42'0 0.0
2017-Dec-14 03:59N 01°12' E 103°42'0 0.0
2017-Dec-14 03:23N 01°12' E 103°42'0 0.0
2017-Dec-14 02:56N 01°12' E 103°42'0 0.0
2017-Dec-14 02:29N 01°12' E 103°42'0 0.1
2017-Dec-14 01:59N 01°12' E 103°42'0 0.1
2017-Dec-14 01:29N 01°12' E 103°42'0 0.1
2017-Dec-14 00:59N 01°12' E 103°42'0 0.1
2017-Dec-14 00:29N 01°12' E 103°42'0 0.1
2017-Dec-13 23:59N 01°12' E 103°42'0 0.0
2017-Dec-13 23:26N 01°12' E 103°42'0 0.0
2017-Dec-13 22:59N 01°12' E 103°42'0 0.0
2017-Dec-13 22:29N 01°12' E 103°42'0 0.0
2017-Dec-13 21:59N 01°12' E 103°42'0 0.0
2017-Dec-13 21:29N 01°12' E 103°42'0 0.1
2017-Dec-13 20:59N 01°12' E 103°42'0 0.0
2017-Dec-13 20:29N 01°12' E 103°42'0 0.1
2017-Dec-13 19:59N 01°12' E 103°42'0 0.1
2017-Dec-13 19:29N 01°12' E 103°42'0 0.0
2017-Dec-13 18:59N 01°12' E 103°42'0 0.0
2017-Dec-13 18:29N 01°12' E 103°42'0 0.0
2017-Dec-13 17:56N 01°12' E 103°42'0 0.0
2017-Dec-13 17:29N 01°12' E 103°42'0 0.1
2017-Dec-13 16:56N 01°12' E 103°42'0 0.0
2017-Dec-13 16:29N 01°12' E 103°42'0 0.0
2017-Dec-13 15:59N 01°12' E 103°42'0 0.0
2017-Dec-13 15:29N 01°12' E 103°42'0 0.6
2017-Dec-13 15:00N 01°12' E 103°42'4 8.4
2017-Dec-13 14:30N 01°10' E 103°45'3 1.8
2017-Dec-13 12:40N 01°12' E 103°48'0 0.0
2017-Dec-13 12:28N 01°12' E 103°48'0 0.0
2017-Dec-13 11:58N 01°12' E 103°48'0 0.0
2017-Dec-13 11:28N 01°12' E 103°48'0 0.0
2017-Dec-13 10:16N 01°12' E 103°48'0 0.0
2017-Dec-13 06:55N 01°12' E 103°48'0 0.0
2017-Dec-13 05:58N 01°12' E 103°48'0 0.0
2017-Dec-13 05:16N 01°12' E 103°48'0 0.0
2017-Dec-13 04:58N 01°12' E 103°48'0 0.0
2017-Dec-13 03:16N 01°12' E 103°48'0 0.0
2017-Dec-13 02:16N 01°12' E 103°48'0 0.0
2017-Dec-13 00:40N 01°12' E 103°48'0 0.0
2017-Dec-13 00:28N 01°12' E 103°48'0 0.0
2017-Dec-12 23:46N 01°12' E 103°48'0 0.0
2017-Dec-12 23:19N 01°12' E 103°48'0 0.0
2017-Dec-12 22:40N 01°12' E 103°48'0 0.0
2017-Dec-12 22:16N 01°12' E 103°48'0 0.0
2017-Dec-12 20:22N 01°12' E 103°48'0 0.0
2017-Dec-12 19:37N 01°12' E 103°48'0 0.0
2017-Dec-12 19:30N 01°12' E 103°48'0 0.2
2017-Dec-12 19:00N 01°12' E 103°48'1 1.8
2017-Dec-12 18:30N 01°12' E 103°49'2 4.7
2017-Dec-12 18:00N 01°14' E 103°47'4 7.2
2017-Dec-12 17:30N 01°16' E 103°45'0 0.7
2017-Dec-12 16:54N 01°16' E 103°44'0 0.0
2017-Dec-12 16:27N 01°16' E 103°44'0 0.0
2017-Dec-12 15:57N 01°16' E 103°44'0 0.0
2017-Dec-12 15:30N 01°16' E 103°44'0 0.0
2017-Dec-12 14:57N 01°16' E 103°44'0 0.0
2017-Dec-12 14:30N 01°16' E 103°44'0 0.0
2017-Dec-12 14:00N 01°16' E 103°44'0 0.0
2017-Dec-12 13:30N 01°16' E 103°44'0 0.0
2017-Dec-12 12:54N 01°16' E 103°44'0 0.0
2017-Dec-12 12:27N 01°16' E 103°44'0 0.0
2017-Dec-12 11:57N 01°16' E 103°44'0 0.0
2017-Dec-12 11:30N 01°16' E 103°44'0 0.0
2017-Dec-12 10:54N 01°16' E 103°44'0 0.0
2017-Dec-12 10:30N 01°16' E 103°44'0 0.0
2017-Dec-12 09:57N 01°16' E 103°44'0 0.0
2017-Dec-12 09:30N 01°16' E 103°44'0 0.0
2017-Dec-12 08:57N 01°16' E 103°44'0 0.0
2017-Dec-12 08:30N 01°16' E 103°44'0 0.0
2017-Dec-12 07:54N 01°16' E 103°44'0 0.0
2017-Dec-12 07:27N 01°16' E 103°44'0 0.0
2017-Dec-12 06:57N 01°16' E 103°44'0 0.0
2017-Dec-12 06:30N 01°16' E 103°44'0 0.0
2017-Dec-12 05:57N 01°16' E 103°44'0 0.0
2017-Dec-12 05:30N 01°16' E 103°44'0 0.0
2017-Dec-12 04:57N 01°16' E 103°44'0 0.0
2017-Dec-12 04:30N 01°16' E 103°44'0 0.0
2017-Dec-12 03:57N 01°16' E 103°44'0 0.0
2017-Dec-12 03:30N 01°16' E 103°44'0 0.0
2017-Dec-12 02:57N 01°16' E 103°44'0 0.0
2017-Dec-12 02:27N 01°16' E 103°44'0 0.0
2017-Dec-12 01:57N 01°16' E 103°44'0 0.0
2017-Dec-12 01:30N 01°16' E 103°44'0 0.0
2017-Dec-12 00:57N 01°16' E 103°44'0 0.0
2017-Dec-12 00:30N 01°16' E 103°44'0 0.0
2017-Dec-11 23:54N 01°16' E 103°44'0 0.0
2017-Dec-11 23:24N 01°16' E 103°44'0 0.0
2017-Dec-11 22:57N 01°16' E 103°44'0 0.0
2017-Dec-11 22:24N 01°16' E 103°44'0 0.0
2017-Dec-11 21:57N 01°16' E 103°44'0 0.0
2017-Dec-11 21:30N 01°16' E 103°44'0 0.0
2017-Dec-11 20:54N 01°16' E 103°44'0 0.0
2017-Dec-11 20:30N 01°16' E 103°44'0 0.0
2017-Dec-11 19:57N 01°16' E 103°44'0 0.0
2017-Dec-11 19:30N 01°16' E 103°44'0 0.0
2017-Dec-11 18:57N 01°16' E 103°44'0 0.0
2017-Dec-11 18:30N 01°16' E 103°44'0 0.0
2017-Dec-11 17:57N 01°16' E 103°44'0 0.0
2017-Dec-11 17:30N 01°16' E 103°44'0 0.0
2017-Dec-11 16:57N 01°16' E 103°44'0 0.0
2017-Dec-11 16:30N 01°16' E 103°44'0 0.0
2017-Dec-11 15:54N 01°16' E 103°44'0 0.0
2017-Dec-11 15:27N 01°16' E 103°44'0 0.0
2017-Dec-11 14:57N 01°16' E 103°44'0 0.0
2017-Dec-11 14:30N 01°16' E 103°44'0 0.0
2017-Dec-11 13:57N 01°16' E 103°44'0 0.0
2017-Dec-11 13:27N 01°16' E 103°44'0 0.0
2017-Dec-11 12:57N 01°16' E 103°44'0 0.0
2017-Dec-11 12:27N 01°16' E 103°44'0 0.0
2017-Dec-11 11:57N 01°16' E 103°44'0 0.0
2017-Dec-11 11:30N 01°16' E 103°44'0 0.0
2017-Dec-11 10:57N 01°16' E 103°44'0 0.0
2017-Dec-11 10:30N 01°16' E 103°44'0 0.0
2017-Dec-11 09:57N 01°16' E 103°44'0 0.0
2017-Dec-11 09:30N 01°16' E 103°44'0 0.0
2017-Dec-11 08:57N 01°16' E 103°44'0 0.0
2017-Dec-11 08:30N 01°16' E 103°44'0 0.0
2017-Dec-11 07:51N 01°16' E 103°44'0 0.0
2017-Dec-11 07:30N 01°16' E 103°44'0 0.0
2017-Dec-11 07:00N 01°16' E 103°44'0 0.0
2017-Dec-11 06:30N 01°16' E 103°44'0 0.0
2017-Dec-11 06:00N 01°16' E 103°44'0 0.4
2017-Dec-11 05:30N 01°16' E 103°45'2 3.6
2017-Dec-11 05:00N 01°15' E 103°46'4 7.4
2017-Dec-11 04:30N 01°14' E 103°42'2 3.7
2017-Dec-11 04:00N 01°16' E 103°41'0 0.0
2017-Dec-11 02:24N 01°16' E 103°41'0 0.0
2017-Dec-11 01:18N 01°16' E 103°41'0 0.0
2017-Dec-10 18:30N 01°16' E 103°41'0 0.0
2017-Dec-10 17:42N 01°16' E 103°41'0 0.0
2017-Dec-10 09:18N 01°16' E 103°41'0 0.0
2017-Dec-10 06:48N 01°16' E 103°41'0 0.0
2017-Dec-10 06:30N 01°16' E 103°41'0 0.0
2017-Dec-10 05:54N 01°16' E 103°41'0 0.0
2017-Dec-10 04:18N 01°16' E 103°41'0 0.0
2017-Dec-10 01:57N 01°16' E 103°41'0 0.0
2017-Dec-10 01:24N 01°16' E 103°41'0 0.0
2017-Dec-10 00:57N 01°16' E 103°41'0 0.0
2017-Dec-10 00:27N 01°16' E 103°41'0 0.0
2017-Dec-09 23:54N 01°16' E 103°41'0 0.0
2017-Dec-09 23:30N 01°16' E 103°41'0 0.0
2017-Dec-09 22:54N 01°16' E 103°41'0 0.0
2017-Dec-09 22:15N 01°16' E 103°41'0 0.0
2017-Dec-09 21:51N 01°16' E 103°41'0 0.0
2017-Dec-09 21:27N 01°16' E 103°41'0 0.0
2017-Dec-09 20:54N 01°16' E 103°41'0 0.0
2017-Dec-09 20:15N 01°16' E 103°41'0 0.0
2017-Dec-09 19:57N 01°16' E 103°41'0 0.0
2017-Dec-09 19:27N 01°16' E 103°41'0 0.0
2017-Dec-09 18:54N 01°16' E 103°41'0 0.0
2017-Dec-09 17:54N 01°16' E 103°41'0 0.0
2017-Dec-09 16:48N 01°16' E 103°41'0 0.0
2017-Dec-09 16:24N 01°16' E 103°41'0 0.0
2017-Dec-09 15:54N 01°16' E 103°41'0 0.0
2017-Dec-09 15:27N 01°16' E 103°41'0 0.0
2017-Dec-09 14:39N 01°16' E 103°41'0 0.0
2017-Dec-09 14:27N 01°16' E 103°41'0 0.0
2017-Dec-09 13:45N 01°16' E 103°41'0 0.0
2017-Dec-09 13:15N 01°16' E 103°41'0 0.0
2017-Dec-09 12:54N 01°16' E 103°41'0 0.0
2017-Dec-09 11:21N 01°16' E 103°41'0 0.0
2017-Dec-09 10:57N 01°16' E 103°41'0 0.0
2017-Dec-09 10:27N 01°16' E 103°41'0 0.0
2017-Dec-09 09:51N 01°16' E 103°41'0 0.0
2017-Dec-09 09:27N 01°16' E 103°41'0 0.0
2017-Dec-09 08:48N 01°16' E 103°41'0 0.0
2017-Dec-09 08:27N 01°16' E 103°41'0 0.0
2017-Dec-09 07:54N 01°16' E 103°41'0 0.0
2017-Dec-09 07:27N 01°16' E 103°41'0 0.0
2017-Dec-09 06:51N 01°16' E 103°41'0 0.0
2017-Dec-09 06:30N 01°16' E 103°41'0 0.0
2017-Dec-09 05:57N 01°16' E 103°41'0 0.0
2017-Dec-09 05:30N 01°16' E 103°41'0 0.0
2017-Dec-09 04:57N 01°16' E 103°41'0 0.0
2017-Dec-09 04:18N 01°16' E 103°41'0 0.0
2017-Dec-09 03:54N 01°16' E 103°41'0 0.0
2017-Dec-09 03:27N 01°16' E 103°41'0 0.0
2017-Dec-09 02:57N 01°16' E 103°41'0 0.0
2017-Dec-09 02:24N 01°16' E 103°41'0 0.0
2017-Dec-09 01:27N 01°16' E 103°41'0 0.0
2017-Dec-09 00:57N 01°16' E 103°41'0 0.0
2017-Dec-09 00:27N 01°16' E 103°41'0 0.0
2017-Dec-08 23:03N 01°16' E 103°41'0 0.0
2017-Dec-08 22:33N 01°16' E 103°41'0 0.0
2017-Dec-08 22:24N 01°16' E 103°41'0 0.0
2017-Dec-08 21:51N 01°16' E 103°41'0 0.0
2017-Dec-08 21:24N 01°16' E 103°41'0 0.0
2017-Dec-08 20:57N 01°16' E 103°41'0 0.0
2017-Dec-08 20:30N 01°16' E 103°41'0 0.1
2017-Dec-08 20:00N 01°16' E 103°41'2 4.3
2017-Dec-08 19:30N 01°14' E 103°42'1 2.0
2017-Dec-08 18:58N 01°13' E 103°41'0 0.0
2017-Dec-08 18:28N 01°13' E 103°41'0 0.0
2017-Dec-08 17:55N 01°13' E 103°41'0 0.0
2017-Dec-08 17:28N 01°13' E 103°41'0 0.1
2017-Dec-08 16:52N 01°13' E 103°41'0 0.0
2017-Dec-08 16:28N 01°13' E 103°41'0 0.0
2017-Dec-08 15:58N 01°13' E 103°41'0 0.2
2017-Dec-08 15:28N 01°13' E 103°41'0 0.1
2017-Dec-08 14:55N 01°13' E 103°41'0 0.0
2017-Dec-08 14:28N 01°13' E 103°41'0 0.0
2017-Dec-08 13:58N 01°13' E 103°41'0 1.0
2017-Dec-08 13:30N 01°13' E 103°41'3 6.8
2017-Dec-08 13:00N 01°12' E 103°37'2 4.4
2017-Dec-08 12:30N 01°12' E 103°35'3 5.9
2017-Dec-08 12:00N 01°11' E 103°33'3 6.6
2017-Dec-08 11:30N 01°09' E 103°30'3 5.8
2017-Dec-08 10:59N 01°11' E 103°27'4 7.4
2017-Dec-08 10:29N 01°12' E 103°24'5 7.9
2017-Dec-08 09:54N 01°15' E 103°20'  
Track history (hours):
 
Tides and Currents Weather Stations Pressure Air Temp Water Temp Dewpoint Dewpoint Depression Visibility Wind Speed Wind Dir Waves Ship Positions

Trf Marquette

Last reported at 2017-Dec-15 03:49 UTC. Time now 2017-Dec-18 14:57 UTC.
Position N 01°14' E 103°58'.

Length 184 m; draft 7.9 m.

Type: Tanker. MMSI: 538006547.

Date/timePositionNaut miles runAvg speedWind from/ knotsBaromVisibWave heightAir tempDewpointWater temp
2017-Dec-15 03:49N 01°14' E 103°58'13 9.8
2017-Dec-15 02:30N 01°16' E 103°45'2 1.2
2017-Dec-15 01:00N 01°17' E 103°44'0 0.0
2017-Dec-15 00:30N 01°17' E 103°44'0 0.0
2017-Dec-14 18:30N 01°17' E 103°44'0 0.0
2017-Dec-14 17:57N 01°17' E 103°44'0 0.0
2017-Dec-14 17:24N 01°17' E 103°44'0 0.0
2017-Dec-14 17:00N 01°17' E 103°44'0 0.0
2017-Dec-14 16:30N 01°17' E 103°44'0 0.0
2017-Dec-14 16:00N 01°17' E 103°44'0 0.0
2017-Dec-14 15:00N 01°17' E 103°44'0 0.0
2017-Dec-14 14:30N 01°17' E 103°44'0 0.0
2017-Dec-14 14:00N 01°17' E 103°44'0 0.0
2017-Dec-14 13:27N 01°17' E 103°44'0 0.0
2017-Dec-14 13:00N 01°17' E 103°44'0 0.0
2017-Dec-14 12:30N 01°17' E 103°44'0 0.0
2017-Dec-14 12:00N 01°17' E 103°44'0 0.0
2017-Dec-14 11:30N 01°17' E 103°44'0 0.0
2017-Dec-14 11:00N 01°17' E 103°44'0 0.0
2017-Dec-14 10:30N 01°17' E 103°44'0 0.0
2017-Dec-14 09:54N 01°17' E 103°44'0 0.0
2017-Dec-14 09:30N 01°17' E 103°44'0 0.0
2017-Dec-14 09:00N 01°17' E 103°44'0 0.0
2017-Dec-14 08:30N 01°17' E 103°44'0 0.0
2017-Dec-14 08:00N 01°17' E 103°44'0 0.0
2017-Dec-14 07:30N 01°17' E 103°44'1 1.5
2017-Dec-14 07:00N 01°17' E 103°44'3 5.8
2017-Dec-14 06:31N 01°15' E 103°46'510.1
2017-Dec-14 06:00N 01°12' E 103°41'1 0.9
2017-Dec-14 05:23N 01°12' E 103°42'0 0.0
2017-Dec-14 04:59N 01°12' E 103°42'0 0.0
2017-Dec-14 04:29N 01°12' E 103°42'0 0.0
2017-Dec-14 03:59N 01°12' E 103°42'0 0.0
2017-Dec-14 03:23N 01°12' E 103°42'0 0.0
2017-Dec-14 02:56N 01°12' E 103°42'0 0.0
2017-Dec-14 02:29N 01°12' E 103°42'0 0.1
2017-Dec-14 01:59N 01°12' E 103°42'0 0.1
2017-Dec-14 01:29N 01°12' E 103°42'0 0.1
2017-Dec-14 00:59N 01°12' E 103°42'0 0.1
2017-Dec-14 00:29N 01°12' E 103°42'0 0.1
2017-Dec-13 23:59N 01°12' E 103°42'0 0.0
2017-Dec-13 23:26N 01°12' E 103°42'0 0.0
2017-Dec-13 22:59N 01°12' E 103°42'0 0.0
2017-Dec-13 22:29N 01°12' E 103°42'0 0.0
2017-Dec-13 21:59N 01°12' E 103°42'0 0.0
2017-Dec-13 21:29N 01°12' E 103°42'0 0.1
2017-Dec-13 20:59N 01°12' E 103°42'0 0.0
2017-Dec-13 20:29N 01°12' E 103°42'0 0.1
2017-Dec-13 19:59N 01°12' E 103°42'0 0.1
2017-Dec-13 19:29N 01°12' E 103°42'0 0.0
2017-Dec-13 18:59N 01°12' E 103°42'0 0.0
2017-Dec-13 18:29N 01°12' E 103°42'0 0.0
2017-Dec-13 17:56N 01°12' E 103°42'0 0.0
2017-Dec-13 17:29N 01°12' E 103°42'0 0.1
2017-Dec-13 16:56N 01°12' E 103°42'0 0.0
2017-Dec-13 16:29N 01°12' E 103°42'0 0.0
2017-Dec-13 15:59N 01°12' E 103°42'0 0.0
2017-Dec-13 15:29N 01°12' E 103°42'0 0.6
2017-Dec-13 15:00N 01°12' E 103°42'4 8.4
2017-Dec-13 14:30N 01°10' E 103°45'3 1.8
2017-Dec-13 12:40N 01°12' E 103°48'0 0.0
2017-Dec-13 12:28N 01°12' E 103°48'0 0.0
2017-Dec-13 11:58N 01°12' E 103°48'0 0.0
2017-Dec-13 11:28N 01°12' E 103°48'0 0.0
2017-Dec-13 10:16N 01°12' E 103°48'0 0.0
2017-Dec-13 06:55N 01°12' E 103°48'0 0.0
2017-Dec-13 05:58N 01°12' E 103°48'0 0.0
2017-Dec-13 05:16N 01°12' E 103°48'0 0.0
2017-Dec-13 04:58N 01°12' E 103°48'0 0.0
2017-Dec-13 03:16N 01°12' E 103°48'0 0.0
2017-Dec-13 02:16N 01°12' E 103°48'0 0.0
2017-Dec-13 00:40N 01°12' E 103°48'0 0.0
2017-Dec-13 00:28N 01°12' E 103°48'0 0.0
2017-Dec-12 23:46N 01°12' E 103°48'0 0.0
2017-Dec-12 23:19N 01°12' E 103°48'0 0.0
2017-Dec-12 22:40N 01°12' E 103°48'0 0.0
2017-Dec-12 22:16N 01°12' E 103°48'0 0.0
2017-Dec-12 20:22N 01°12' E 103°48'0 0.0
2017-Dec-12 19:37N 01°12' E 103°48'0 0.0
2017-Dec-12 19:30N 01°12' E 103°48'0 0.2
2017-Dec-12 19:00N 01°12' E 103°48'1 1.8
2017-Dec-12 18:30N 01°12' E 103°49'2 4.7
2017-Dec-12 18:00N 01°14' E 103°47'4 7.2
2017-Dec-12 17:30N 01°16' E 103°45'0 0.7
2017-Dec-12 16:54N 01°16' E 103°44'0 0.0
2017-Dec-12 16:27N 01°16' E 103°44'0 0.0
2017-Dec-12 15:57N 01°16' E 103°44'0 0.0
2017-Dec-12 15:30N 01°16' E 103°44'0 0.0
2017-Dec-12 14:57N 01°16' E 103°44'0 0.0
2017-Dec-12 14:30N 01°16' E 103°44'0 0.0
2017-Dec-12 14:00N 01°16' E 103°44'0 0.0
2017-Dec-12 13:30N 01°16' E 103°44'0 0.0
2017-Dec-12 12:54N 01°16' E 103°44'0 0.0
2017-Dec-12 12:27N 01°16' E 103°44'0 0.0
2017-Dec-12 11:57N 01°16' E 103°44'0 0.0
2017-Dec-12 11:30N 01°16' E 103°44'0 0.0
2017-Dec-12 10:54N 01°16' E 103°44'0 0.0
2017-Dec-12 10:30N 01°16' E 103°44'0 0.0
2017-Dec-12 09:57N 01°16' E 103°44'0 0.0
2017-Dec-12 09:30N 01°16' E 103°44'0 0.0
2017-Dec-12 08:57N 01°16' E 103°44'0 0.0
2017-Dec-12 08:30N 01°16' E 103°44'0 0.0
2017-Dec-12 07:54N 01°16' E 103°44'0 0.0
2017-Dec-12 07:27N 01°16' E 103°44'0 0.0
2017-Dec-12 06:57N 01°16' E 103°44'0 0.0
2017-Dec-12 06:30N 01°16' E 103°44'0 0.0
2017-Dec-12 05:57N 01°16' E 103°44'0 0.0
2017-Dec-12 05:30N 01°16' E 103°44'0 0.0
2017-Dec-12 04:57N 01°16' E 103°44'0 0.0
2017-Dec-12 04:30N 01°16' E 103°44'0 0.0
2017-Dec-12 03:57N 01°16' E 103°44'0 0.0
2017-Dec-12 03:30N 01°16' E 103°44'0 0.0
2017-Dec-12 02:57N 01°16' E 103°44'0 0.0
2017-Dec-12 02:27N 01°16' E 103°44'0 0.0
2017-Dec-12 01:57N 01°16' E 103°44'0 0.0
2017-Dec-12 01:30N 01°16' E 103°44'0 0.0
2017-Dec-12 00:57N 01°16' E 103°44'0 0.0
2017-Dec-12 00:30N 01°16' E 103°44'0 0.0
2017-Dec-11 23:54N 01°16' E 103°44'0 0.0
2017-Dec-11 23:24N 01°16' E 103°44'0 0.0
2017-Dec-11 22:57N 01°16' E 103°44'0 0.0
2017-Dec-11 22:24N 01°16' E 103°44'0 0.0
2017-Dec-11 21:57N 01°16' E 103°44'0 0.0
2017-Dec-11 21:30N 01°16' E 103°44'0 0.0
2017-Dec-11 20:54N 01°16' E 103°44'0 0.0
2017-Dec-11 20:30N 01°16' E 103°44'0 0.0
2017-Dec-11 19:57N 01°16' E 103°44'0 0.0
2017-Dec-11 19:30N 01°16' E 103°44'0 0.0
2017-Dec-11 18:57N 01°16' E 103°44'0 0.0
2017-Dec-11 18:30N 01°16' E 103°44'0 0.0
2017-Dec-11 17:57N 01°16' E 103°44'0 0.0
2017-Dec-11 17:30N 01°16' E 103°44'0 0.0
2017-Dec-11 16:57N 01°16' E 103°44'0 0.0
2017-Dec-11 16:30N 01°16' E 103°44'0 0.0
2017-Dec-11 15:54N 01°16' E 103°44'0 0.0
2017-Dec-11 15:27N 01°16' E 103°44'0 0.0
2017-Dec-11 14:57N 01°16' E 103°44'0 0.0
2017-Dec-11 14:30N 01°16' E 103°44'0 0.0
2017-Dec-11 13:57N 01°16' E 103°44'0 0.0
2017-Dec-11 13:27N 01°16' E 103°44'0 0.0
2017-Dec-11 12:57N 01°16' E 103°44'0 0.0
2017-Dec-11 12:27N 01°16' E 103°44'0 0.0
2017-Dec-11 11:57N 01°16' E 103°44'0 0.0
2017-Dec-11 11:30N 01°16' E 103°44'0 0.0
2017-Dec-11 10:57N 01°16' E 103°44'0 0.0
2017-Dec-11 10:30N 01°16' E 103°44'0 0.0
2017-Dec-11 09:57N 01°16' E 103°44'0 0.0
2017-Dec-11 09:30N 01°16' E 103°44'0 0.0
2017-Dec-11 08:57N 01°16' E 103°44'0 0.0
2017-Dec-11 08:30N 01°16' E 103°44'0 0.0
2017-Dec-11 07:51N 01°16' E 103°44'0 0.0
2017-Dec-11 07:30N 01°16' E 103°44'0 0.0
2017-Dec-11 07:00N 01°16' E 103°44'0 0.0
2017-Dec-11 06:30N 01°16' E 103°44'0 0.0
2017-Dec-11 06:00N 01°16' E 103°44'0 0.4
2017-Dec-11 05:30N 01°16' E 103°45'2 3.6
2017-Dec-11 05:00N 01°15' E 103°46'4 7.4
2017-Dec-11 04:30N 01°14' E 103°42'2 3.7
2017-Dec-11 04:00N 01°16' E 103°41'0 0.0
2017-Dec-11 02:24N 01°16' E 103°41'0 0.0
2017-Dec-11 01:18N 01°16' E 103°41'0 0.0
2017-Dec-10 18:30N 01°16' E 103°41'0 0.0
2017-Dec-10 17:42N 01°16' E 103°41'0 0.0
2017-Dec-10 09:18N 01°16' E 103°41'0 0.0
2017-Dec-10 06:48N 01°16' E 103°41'0 0.0
2017-Dec-10 06:30N 01°16' E 103°41'0 0.0
2017-Dec-10 05:54N 01°16' E 103°41'0 0.0
2017-Dec-10 04:18N 01°16' E 103°41'0 0.0
2017-Dec-10 01:57N 01°16' E 103°41'0 0.0
2017-Dec-10 01:24N 01°16' E 103°41'0 0.0
2017-Dec-10 00:57N 01°16' E 103°41'0 0.0
2017-Dec-10 00:27N 01°16' E 103°41'0 0.0
2017-Dec-09 23:54N 01°16' E 103°41'0 0.0
2017-Dec-09 23:30N 01°16' E 103°41'0 0.0
2017-Dec-09 22:54N 01°16' E 103°41'0 0.0
2017-Dec-09 22:15N 01°16' E 103°41'0 0.0
2017-Dec-09 21:51N 01°16' E 103°41'0 0.0
2017-Dec-09 21:27N 01°16' E 103°41'0 0.0
2017-Dec-09 20:54N 01°16' E 103°41'0 0.0
2017-Dec-09 20:15N 01°16' E 103°41'0 0.0
2017-Dec-09 19:57N 01°16' E 103°41'0 0.0
2017-Dec-09 19:27N 01°16' E 103°41'0 0.0
2017-Dec-09 18:54N 01°16' E 103°41'0 0.0
2017-Dec-09 17:54N 01°16' E 103°41'0 0.0
2017-Dec-09 16:48N 01°16' E 103°41'0 0.0
2017-Dec-09 16:24N 01°16' E 103°41'0 0.0
2017-Dec-09 15:54N 01°16' E 103°41'0 0.0
2017-Dec-09 15:27N 01°16' E 103°41'0 0.0
2017-Dec-09 14:39N 01°16' E 103°41'0 0.0
2017-Dec-09 14:27N 01°16' E 103°41'0 0.0
2017-Dec-09 13:45N 01°16' E 103°41'0 0.0
2017-Dec-09 13:15N 01°16' E 103°41'0 0.0
2017-Dec-09 12:54N 01°16' E 103°41'0 0.0
2017-Dec-09 11:21N 01°16' E 103°41'0 0.0
2017-Dec-09 10:57N 01°16' E 103°41'0 0.0
2017-Dec-09 10:27N 01°16' E 103°41'0 0.0
2017-Dec-09 09:51N 01°16' E 103°41'0 0.0
2017-Dec-09 09:27N 01°16' E 103°41'0 0.0
2017-Dec-09 08:48N 01°16' E 103°41'0 0.0
2017-Dec-09 08:27N 01°16' E 103°41'0 0.0
2017-Dec-09 07:54N 01°16' E 103°41'0 0.0
2017-Dec-09 07:27N 01°16' E 103°41'0 0.0
2017-Dec-09 06:51N 01°16' E 103°41'0 0.0
2017-Dec-09 06:30N 01°16' E 103°41'0 0.0
2017-Dec-09 05:57N 01°16' E 103°41'0 0.0
2017-Dec-09 05:30N 01°16' E 103°41'0 0.0
2017-Dec-09 04:57N 01°16' E 103°41'0 0.0
2017-Dec-09 04:18N 01°16' E 103°41'0 0.0
2017-Dec-09 03:54N 01°16' E 103°41'0 0.0
2017-Dec-09 03:27N 01°16' E 103°41'0 0.0
2017-Dec-09 02:57N 01°16' E 103°41'0 0.0
2017-Dec-09 02:24N 01°16' E 103°41'0 0.0
2017-Dec-09 01:27N 01°16' E 103°41'0 0.0
2017-Dec-09 00:57N 01°16' E 103°41'0 0.0
2017-Dec-09 00:27N 01°16' E 103°41'0 0.0
2017-Dec-08 23:03N 01°16' E 103°41'0 0.0
2017-Dec-08 22:33N 01°16' E 103°41'0 0.0
2017-Dec-08 22:24N 01°16' E 103°41'0 0.0
2017-Dec-08 21:51N 01°16' E 103°41'0 0.0
2017-Dec-08 21:24N 01°16' E 103°41'0 0.0
2017-Dec-08 20:57N 01°16' E 103°41'0 0.0
2017-Dec-08 20:30N 01°16' E 103°41'0 0.1
2017-Dec-08 20:00N 01°16' E 103°41'2 4.3
2017-Dec-08 19:30N 01°14' E 103°42'1 2.0
2017-Dec-08 18:58N 01°13' E 103°41'0 0.0
2017-Dec-08 18:28N 01°13' E 103°41'0 0.0
2017-Dec-08 17:55N 01°13' E 103°41'0 0.0
2017-Dec-08 17:28N 01°13' E 103°41'0 0.1
2017-Dec-08 16:52N 01°13' E 103°41'0 0.0
2017-Dec-08 16:28N 01°13' E 103°41'0 0.0
2017-Dec-08 15:58N 01°13' E 103°41'0 0.2
2017-Dec-08 15:28N 01°13' E 103°41'0 0.1
2017-Dec-08 14:55N 01°13' E 103°41'0 0.0
2017-Dec-08 14:28N 01°13' E 103°41'0 0.0
2017-Dec-08 13:58N 01°13' E 103°41'0 1.0
2017-Dec-08 13:30N 01°13' E 103°41'3 6.8
2017-Dec-08 13:00N 01°12' E 103°37'2 4.4
2017-Dec-08 12:30N 01°12' E 103°35'3 5.9
2017-Dec-08 12:00N 01°11' E 103°33'3 6.6
2017-Dec-08 11:30N 01°09' E 103°30'3 5.8
2017-Dec-08 10:59N 01°11' E 103°27'4 7.4
2017-Dec-08 10:29N 01°12' E 103°24'5 7.9
2017-Dec-08 09:54N 01°15' E 103°20'  

Dump ship's entire track history